Allegheny, Pennsylvania
Current Conditions -  °F | °C
As of 6:53 PM on Monday 22 Dec 2014 (Local Time) from KAGC Reporting Station
Broken Clouds Broken Clouds  
Wind Chill: 33°   Ceiling: 3200
Heat Index: 39°   Visibility: 8mi
Dew Point: 28°   Wind: 8mph
Humidity: 65%   Direction: 110°ESE
Pressure: 29.97"   Gusts: NA
Location:  40.4725°N, 80.0082°W
Report Text: KAGC 222353Z AUTO 11007KT 8SM BKN032 04/M02 A2997 RMK AO2 SLP166 T00391022 10083 20039 50001 TSNO
Loading
Personal Weather Stations






























Interactive Weather Map New forecast layout! Learn more

10-Day Weather Forecast

Advertisements
Track Severe Weather on mobile